logo
Rechercher aéroport 
image banner adimage banner adimage banner ad
image banner ad

HAGL - Geladi

Situé à , Ethiopia

ICAO - , IATA - GLC

Données fournies par Airmate  

Information générale

Coordonnées: N6°57'0" E46°24'0"
Élévation : 1365 feet MSL.
 
Voir autres Aéroports à Somali

Données opérationnelles

Special qualification required
Heure actuelle UTC:
Heure actuelle locale:
Météo à : - ( 0 km )
METAR: K40B 251616Z AUTO 19008KT 21/17 A2990 RMK AO1 SLP119 T02070172 57017
Voir NOTAMs / SUP AIP / TFR affectant cet aéroport [VIEW]
Fréquences de communication: [VIEW]

Pistes:

Identifiant RWYQFULongueur (ft)Largeur (ft)SurfaceLDA (ft)
0600UNK
2400UNK

Coordonnées de l'aéroport

Adresse: Ethiopia

Vue satellite de HAGL